Air Sicilia Virtual Airways - Route

Air Sicilia Virtual Airways - SIC208L

( IT ) LIMW
Aosta Airport
AOSTA ( AOT )
plane_to ( IT ) LIMZ
Cuneo International Airport
CUNEO ( CUF )
IVAO VFR ITALY 2018 - LEG: 17

AIRPORT NEAR NAVIGATION AIDS

Type Name Frequency

METAR / TAF
LIMW 211650Z AUTO 29013G24KT 240V340 9999 NCD 22/02 Q1010

RUNWAY INFORMATION

Runway Runway length Runway width Runway elevation Runway displaced threshold Runway heading
09 4088 98 1790 213 85
27 4088 98 1773 115 265

AIRPORT FREQUENCIES

Type Name Frequency
AFIS INFO 119.95 MHZ

AIRPORT NEAR NAVIGATION AIDS

Type Name Frequency
NDB Levaldigi 371 KHZ

METAR / TAF
LIMZ 211650Z 12009KT 9999 FEW020 19/13 Q1010
LIMZ 211100Z 2112/2212 VRB05KT 9999 SCT040 TEMPO 2114/2120 SHRA

RUNWAY INFORMATION

Runway Runway length Runway width Runway elevation Runway displaced threshold Runway heading
03 6903 148 1267 0 32
21 6903 148 1217 0 212

AIRPORT FREQUENCIES

Type Name Frequency
AFIS CUNEO INFO 119.55 MHZ

Flightplan

via SAINT VINCENT - IVREA - BIELLA - CASALE MONFERRATO - ALBA

Air Sicilia Virtual Airways Fleets

AVAILABLE AIRCRAFTS for route at this time in Aosta Airport
C172 - Cessna 172 Skyhawk
( US ) Cessna

Aircraft in fleet: 13

C208 - Cessna 208 Caravan
( US ) Cessna

Aircraft in fleet: 13

PC12 - Pilatus PC12 Eagle
( CH ) Pilatus

Aircraft in fleet: 4

160 NM

Distance in nautical miles.

€ 200,00

Ticket price for this flight.

Nr. 17

Leg



12-11-2018
Aerosoft Airport Rio de Janeiro International V2.0 XP

L'Aeroporto Internazionale di Rio de Janeiro-Galeão (IATA: GIG, ICAO: SBGL), costruito nel 1952 nel quartiere di Ilha do Governador ed intitolato al musicista Antônio Carlos Jobim, è il principale aeroporto internazio ....


15-10-2018
Aerosoft A320 Family professional

La gamma di aeromobili A320 è una delle più comuni nei cieli. Questi aerei di linea a doppio-getto a corto e medio raggio si sono dimostrati convenienti, affidabili e prontamente disponibili, rendendoli le opzioni migl ....


10-10-2018
Motore critico ( Critical Engine )

Il motore critico di un velivolo ad ala fissa multi-motore è il motore che, in caso di guasto, influirebbe negativamente sulle prestazioni o sulla capacità di manovra di un aereo. Sui velivoli ad elica, vi è un ....


04-10-2018
Aerosoft Dortmund XP

Scopri il centro della regione della Ruhr su XPlane 11 - lo scenario Dortmund XP è una ricostruzione completa della città di Dortmund per il simulatore di volo targato Laminar. Oltre all'intera area urbana di Dortmu ....


07-08-2018
Aerosoft Professional Flight Planner PFPX

PFPX - Professional Flight Planner X - è un nuovo ed innovativo strumento di pianificazione del volo sviluppato da piloti e dispatcher del mondo reale. È un'aggiunta preziosa e realistica alla tua esperienza di simulaz ....